LFPM 031930Z AUTO 19011KT 7000 RA BKN005/// OVC010/// ///TCU 05/05 Q1005

Les avions qui composent notre flotte

Beechcraft 33 Bonanza

Le haut de gamme de l'aviation légère
IFR, Pas variable, Train rentrant

F-BRIZ


F-BRIZ Planche